sensor_id;sensor_type;location;lat;lon;timestamp;temperature;humidity
3770;DHT22;1900;48.890;9.190;2023-03-26T00:01:19;14.20;51.60
3770;DHT22;1900;48.890;9.190;2023-03-26T00:03:46;14.10;51.50
3770;DHT22;1900;48.890;9.190;2023-03-26T00:06:21;14.10;51.50
3770;DHT22;1900;48.890;9.190;2023-03-26T00:08:50;14.00;51.40
3770;DHT22;1900;48.890;9.190;2023-03-26T00:11:17;14.00;51.30
3770;DHT22;1900;48.890;9.190;2023-03-26T00:13:43;14.00;51.40
3770;DHT22;1900;48.890;9.190;2023-03-26T00:16:10;13.90;51.40
3770;DHT22;1900;48.890;9.190;2023-03-26T00:18:38;13.90;51.30
3770;DHT22;1900;48.890;9.190;2023-03-26T00:21:08;13.80;51.30
3770;DHT22;1900;48.890;9.190;2023-03-26T00:23:35;13.80;51.30
3770;DHT22;1900;48.890;9.190;2023-03-26T00:26:02;13.80;51.30
3770;DHT22;1900;48.890;9.190;2023-03-26T00:28:28;13.80;51.40
3770;DHT22;1900;48.890;9.190;2023-03-26T00:31:02;13.70;51.30
3770;DHT22;1900;48.890;9.190;2023-03-26T00:33:29;13.70;51.40
3770;DHT22;1900;48.890;9.190;2023-03-26T00:35:57;13.70;51.40
3770;DHT22;1900;48.890;9.190;2023-03-26T00:38:27;13.60;51.40
3770;DHT22;1900;48.890;9.190;2023-03-26T00:40:53;13.60;51.40
3770;DHT22;1900;48.890;9.190;2023-03-26T00:43:20;13.60;51.40
3770;DHT22;1900;48.890;9.190;2023-03-26T00:45:47;13.60;51.40
3770;DHT22;1900;48.890;9.190;2023-03-26T00:48:14;13.60;51.50
3770;DHT22;1900;48.890;9.190;2023-03-26T00:50:41;13.60;51.50
3770;DHT22;1900;48.890;9.190;2023-03-26T00:53:08;13.60;51.60
3770;DHT22;1900;48.890;9.190;2023-03-26T00:55:34;13.60;51.60
3770;DHT22;1900;48.890;9.190;2023-03-26T00:58:00;13.60;51.60
3770;DHT22;1900;48.890;9.190;2023-03-26T01:00:31;13.60;51.60
3770;DHT22;1900;48.890;9.190;2023-03-26T01:03:03;13.50;51.50
3770;DHT22;1900;48.890;9.190;2023-03-26T01:08:10;13.50;51.50
3770;DHT22;1900;48.890;9.190;2023-03-26T01:10:40;13.50;51.40
3770;DHT22;1900;48.890;9.190;2023-03-26T01:13:07;13.40;51.30
3770;DHT22;1900;48.890;9.190;2023-03-26T01:15:33;13.50;51.50
3770;DHT22;1900;48.890;9.190;2023-03-26T01:18:03;13.50;51.50
3770;DHT22;1900;48.890;9.190;2023-03-26T01:20:33;13.40;51.50
3770;DHT22;1900;48.890;9.190;2023-03-26T01:23:05;13.40;51.50
3770;DHT22;1900;48.890;9.190;2023-03-26T01:25:36;13.40;51.50
3770;DHT22;1900;48.890;9.190;2023-03-26T01:28:05;13.40;51.60
3770;DHT22;1900;48.890;9.190;2023-03-26T01:30:47;13.40;51.50
3770;DHT22;1900;48.890;9.190;2023-03-26T01:36:06;13.40;51.50
3770;DHT22;1900;48.890;9.190;2023-03-26T01:38:40;13.30;51.40
3770;DHT22;1900;48.890;9.190;2023-03-26T01:41:26;13.30;51.40
3770;DHT22;1900;48.890;9.190;2023-03-26T01:44:16;13.30;51.50
3770;DHT22;1900;48.890;9.190;2023-03-26T01:46:46;13.30;52.20
3770;DHT22;1900;48.890;9.190;2023-03-26T01:49:13;13.30;51.50
3770;DHT22;1900;48.890;9.190;2023-03-26T01:51:40;13.30;51.60
3770;DHT22;1900;48.890;9.190;2023-03-26T01:54:09;13.30;51.70
3770;DHT22;1900;48.890;9.190;2023-03-26T01:59:16;13.30;51.70
3770;DHT22;1900;48.890;9.190;2023-03-26T02:01:48;13.30;51.60
3770;DHT22;1900;48.890;9.190;2023-03-26T02:09:49;13.20;51.40
3770;DHT22;1900;48.890;9.190;2023-03-26T02:12:17;13.20;51.50
3770;DHT22;1900;48.890;9.190;2023-03-26T02:14:44;13.20;51.50
3770;DHT22;1900;48.890;9.190;2023-03-26T02:17:10;13.20;51.50
3770;DHT22;1900;48.890;9.190;2023-03-26T02:19:37;13.20;51.50
3770;DHT22;1900;48.890;9.190;2023-03-26T02:22:11;13.20;51.50
3770;DHT22;1900;48.890;9.190;2023-03-26T02:24:42;13.10;51.50
3770;DHT22;1900;48.890;9.190;2023-03-26T02:27:08;13.10;51.50
3770;DHT22;1900;48.890;9.190;2023-03-26T02:29:35;13.10;51.50
3770;DHT22;1900;48.890;9.190;2023-03-26T02:32:06;13.10;51.50
3770;DHT22;1900;48.890;9.190;2023-03-26T02:34:32;13.10;51.60
3770;DHT22;1900;48.890;9.190;2023-03-26T02:36:58;13.10;51.50
3770;DHT22;1900;48.890;9.190;2023-03-26T02:39:24;13.10;51.60
3770;DHT22;1900;48.890;9.190;2023-03-26T02:41:55;13.10;51.60
3770;DHT22;1900;48.890;9.190;2023-03-26T02:44:21;13.10;51.70
3770;DHT22;1900;48.890;9.190;2023-03-26T02:47:09;13.10;51.80
3770;DHT22;1900;48.890;9.190;2023-03-26T02:49:35;13.10;51.80
3770;DHT22;1900;48.890;9.190;2023-03-26T02:52:01;13.10;51.70
3770;DHT22;1900;48.890;9.190;2023-03-26T02:54:32;13.10;51.80
3770;DHT22;1900;48.890;9.190;2023-03-26T02:57:15;13.10;51.80
3770;DHT22;1900;48.890;9.190;2023-03-26T02:59:59;13.10;51.80
3770;DHT22;1900;48.890;9.190;2023-03-26T03:02:36;13.10;51.90
3770;DHT22;1900;48.890;9.190;2023-03-26T03:05:24;13.10;51.90
3770;DHT22;1900;48.890;9.190;2023-03-26T03:08:13;13.10;51.90
3770;DHT22;1900;48.890;9.190;2023-03-26T03:11:02;13.10;52.50
3770;DHT22;1900;48.890;9.190;2023-03-26T03:13:38;13.10;52.00
3770;DHT22;1900;48.890;9.190;2023-03-26T03:16:04;13.20;52.10
3770;DHT22;1900;48.890;9.190;2023-03-26T03:18:30;13.20;52.10
3770;DHT22;1900;48.890;9.190;2023-03-26T03:20:56;13.20;52.10
3770;DHT22;1900;48.890;9.190;2023-03-26T03:23:21;13.20;52.10
3770;DHT22;1900;48.890;9.190;2023-03-26T03:25:52;13.20;52.10
3770;DHT22;1900;48.890;9.190;2023-03-26T03:28:17;13.20;52.10
3770;DHT22;1900;48.890;9.190;2023-03-26T03:30:44;13.20;52.20
3770;DHT22;1900;48.890;9.190;2023-03-26T03:33:31;13.30;52.20
3770;DHT22;1900;48.890;9.190;2023-03-26T03:35:57;13.30;52.30
3770;DHT22;1900;48.890;9.190;2023-03-26T03:38:24;13.30;52.30
3770;DHT22;1900;48.890;9.190;2023-03-26T03:40:52;13.30;52.30
3770;DHT22;1900;48.890;9.190;2023-03-26T03:43:20;13.30;52.20
3770;DHT22;1900;48.890;9.190;2023-03-26T03:46:10;13.30;52.20
3770;DHT22;1900;48.890;9.190;2023-03-26T03:48:42;13.30;52.20
3770;DHT22;1900;48.890;9.190;2023-03-26T03:51:13;13.30;52.20
3770;DHT22;1900;48.890;9.190;2023-03-26T03:53:49;13.30;52.20
3770;DHT22;1900;48.890;9.190;2023-03-26T03:56:24;13.30;52.20
3770;DHT22;1900;48.890;9.190;2023-03-26T03:59:09;13.30;52.10
3770;DHT22;1900;48.890;9.190;2023-03-26T04:01:36;13.30;52.70
3770;DHT22;1900;48.890;9.190;2023-03-26T04:04:09;13.30;52.20
3770;DHT22;1900;48.890;9.190;2023-03-26T04:06:55;13.30;52.20
3770;DHT22;1900;48.890;9.190;2023-03-26T04:09:22;13.30;52.20
3770;DHT22;1900;48.890;9.190;2023-03-26T04:11:48;13.30;52.20
3770;DHT22;1900;48.890;9.190;2023-03-26T04:14:33;13.30;52.20
3770;DHT22;1900;48.890;9.190;2023-03-26T04:17:01;13.20;52.10
3770;DHT22;1900;48.890;9.190;2023-03-26T04:19:31;13.30;52.20
3770;DHT22;1900;48.890;9.190;2023-03-26T04:21:57;13.30;52.30
3770;DHT22;1900;48.890;9.190;2023-03-26T04:24:29;13.30;52.30
3770;DHT22;1900;48.890;9.190;2023-03-26T04:27:20;13.30;52.30
3770;DHT22;1900;48.890;9.190;2023-03-26T04:29:49;13.30;52.40
3770;DHT22;1900;48.890;9.190;2023-03-26T04:32:26;13.30;52.50
3770;DHT22;1900;48.890;9.190;2023-03-26T04:34:56;13.30;52.50
3770;DHT22;1900;48.890;9.190;2023-03-26T04:37:28;13.30;52.50
3770;DHT22;1900;48.890;9.190;2023-03-26T04:40:08;13.30;52.50
3770;DHT22;1900;48.890;9.190;2023-03-26T04:42:49;13.30;52.40
3770;DHT22;1900;48.890;9.190;2023-03-26T04:45:38;13.30;52.40
3770;DHT22;1900;48.890;9.190;2023-03-26T04:48:04;13.30;52.40
3770;DHT22;1900;48.890;9.190;2023-03-26T04:50:31;13.30;52.40
3770;DHT22;1900;48.890;9.190;2023-03-26T04:52:58;13.30;52.50
3770;DHT22;1900;48.890;9.190;2023-03-26T04:56:47;13.30;52.40
3770;DHT22;1900;48.890;9.190;2023-03-26T04:59:02;13.30;52.50
3770;DHT22;1900;48.890;9.190;2023-03-26T05:01:31;13.30;52.50
3770;DHT22;1900;48.890;9.190;2023-03-26T05:03:57;13.30;52.60
3770;DHT22;1900;48.890;9.190;2023-03-26T05:06:25;13.30;52.60
3770;DHT22;1900;48.890;9.190;2023-03-26T05:08:53;13.30;52.60
3770;DHT22;1900;48.890;9.190;2023-03-26T05:11:42;13.30;52.60
3770;DHT22;1900;48.890;9.190;2023-03-26T05:14:08;13.30;52.60
3770;DHT22;1900;48.890;9.190;2023-03-26T05:16:34;13.40;52.80
3770;DHT22;1900;48.890;9.190;2023-03-26T05:19:06;13.40;52.80
3770;DHT22;1900;48.890;9.190;2023-03-26T05:21:33;13.40;52.80
3770;DHT22;1900;48.890;9.190;2023-03-26T05:23:59;13.40;52.80
3770;DHT22;1900;48.890;9.190;2023-03-26T05:26:26;13.40;52.80
3770;DHT22;1900;48.890;9.190;2023-03-26T05:28:54;13.50;52.90
3770;DHT22;1900;48.890;9.190;2023-03-26T05:31:33;13.50;52.90
3770;DHT22;1900;48.890;9.190;2023-03-26T05:34:00;13.50;53.00
3770;DHT22;1900;48.890;9.190;2023-03-26T05:36:26;13.60;53.00
3770;DHT22;1900;48.890;9.190;2023-03-26T05:39:20;13.60;53.00
3770;DHT22;1900;48.890;9.190;2023-03-26T05:41:52;13.60;52.90
3770;DHT22;1900;48.890;9.190;2023-03-26T05:44:19;13.60;53.00
3770;DHT22;1900;48.890;9.190;2023-03-26T05:46:44;13.60;53.00
3770;DHT22;1900;48.890;9.190;2023-03-26T05:49:18;13.60;52.90
3770;DHT22;1900;48.890;9.190;2023-03-26T05:51:43;13.60;53.00
3770;DHT22;1900;48.890;9.190;2023-03-26T05:54:29;13.60;53.00
3770;DHT22;1900;48.890;9.190;2023-03-26T05:57:06;13.60;53.00
3770;DHT22;1900;48.890;9.190;2023-03-26T05:59:51;13.60;53.00
3770;DHT22;1900;48.890;9.190;2023-03-26T06:02:35;13.60;52.90
3770;DHT22;1900;48.890;9.190;2023-03-26T06:05:19;13.60;53.00
3770;DHT22;1900;48.890;9.190;2023-03-26T06:07:59;13.70;53.10
3770;DHT22;1900;48.890;9.190;2023-03-26T06:10:36;13.70;53.10
3770;DHT22;1900;48.890;9.190;2023-03-26T06:13:02;13.60;53.00
3770;DHT22;1900;48.890;9.190;2023-03-26T06:15:28;13.70;53.10
3770;DHT22;1900;48.890;9.190;2023-03-26T06:18:05;13.60;52.90
3770;DHT22;1900;48.890;9.190;2023-03-26T06:20:51;13.60;52.90
3770;DHT22;1900;48.890;9.190;2023-03-26T06:23:37;13.60;52.90
3770;DHT22;1900;48.890;9.190;2023-03-26T06:26:25;13.60;53.00
3770;DHT22;1900;48.890;9.190;2023-03-26T06:29:01;13.60;53.00
3770;DHT22;1900;48.890;9.190;2023-03-26T06:31:44;13.60;53.00
3770;DHT22;1900;48.890;9.190;2023-03-26T06:34:16;13.70;53.10
3770;DHT22;1900;48.890;9.190;2023-03-26T06:36:42;13.70;53.10
3770;DHT22;1900;48.890;9.190;2023-03-26T06:39:08;13.70;53.10
3770;DHT22;1900;48.890;9.190;2023-03-26T06:41:35;13.70;53.20
3770;DHT22;1900;48.890;9.190;2023-03-26T06:44:20;13.70;53.10
3770;DHT22;1900;48.890;9.190;2023-03-26T06:47:12;13.70;53.20
3770;DHT22;1900;48.890;9.190;2023-03-26T06:50:10;13.80;53.20
3770;DHT22;1900;48.890;9.190;2023-03-26T06:52:55;13.80;53.20
3770;DHT22;1900;48.890;9.190;2023-03-26T06:55:42;13.70;53.10
3770;DHT22;1900;48.890;9.190;2023-03-26T06:58:39;13.80;53.20
3770;DHT22;1900;48.890;9.190;2023-03-26T07:01:40;13.70;53.10
3770;DHT22;1900;48.890;9.190;2023-03-26T07:04:44;13.70;53.00
3770;DHT22;1900;48.890;9.190;2023-03-26T07:07:42;13.70;52.90
3770;DHT22;1900;48.890;9.190;2023-03-26T07:10:26;13.70;52.90
3770;DHT22;1900;48.890;9.190;2023-03-26T07:13:11;13.60;52.90
3770;DHT22;1900;48.890;9.190;2023-03-26T07:16:08;13.60;52.90
3770;DHT22;1900;48.890;9.190;2023-03-26T07:18:57;13.60;53.00
3770;DHT22;1900;48.890;9.190;2023-03-26T07:21:29;13.60;53.10
3770;DHT22;1900;48.890;9.190;2023-03-26T07:23:55;13.60;53.10
3770;DHT22;1900;48.890;9.190;2023-03-26T07:27:08;13.60;53.10
3770;DHT22;1900;48.890;9.190;2023-03-26T07:29:51;13.70;53.30
3770;DHT22;1900;48.890;9.190;2023-03-26T07:46:53;13.80;53.50
3770;DHT22;1900;48.890;9.190;2023-03-26T07:49:33;13.80;53.50
3770;DHT22;1900;48.890;9.190;2023-03-26T07:52:12;13.80;53.60
3770;DHT22;1900;48.890;9.190;2023-03-26T07:54:54;13.90;53.60
3770;DHT22;1900;48.890;9.190;2023-03-26T08:03:20;13.80;53.30
3770;DHT22;1900;48.890;9.190;2023-03-26T08:06:45;13.80;53.20
3770;DHT22;1900;48.890;9.190;2023-03-26T08:16:21;13.80;53.50
3770;DHT22;1900;48.890;9.190;2023-03-26T08:18:49;13.80;53.50
3770;DHT22;1900;48.890;9.190;2023-03-26T08:21:21;13.80;53.50
3770;DHT22;1900;48.890;9.190;2023-03-26T08:31:59;13.70;53.30
3770;DHT22;1900;48.890;9.190;2023-03-26T08:34:25;13.70;53.40
3770;DHT22;1900;48.890;9.190;2023-03-26T08:36:51;13.80;53.50
3770;DHT22;1900;48.890;9.190;2023-03-26T08:39:18;13.80;53.60
3770;DHT22;1900;48.890;9.190;2023-03-26T08:44:43;13.80;53.60
3770;DHT22;1900;48.890;9.190;2023-03-26T08:47:44;13.80;53.60
3770;DHT22;1900;48.890;9.190;2023-03-26T08:50:35;13.80;53.70
3770;DHT22;1900;48.890;9.190;2023-03-26T08:56:15;13.80;53.60
3770;DHT22;1900;48.890;9.190;2023-03-26T09:02:01;13.80;53.80
3770;DHT22;1900;48.890;9.190;2023-03-26T09:13:35;13.80;54.00
3770;DHT22;1900;48.890;9.190;2023-03-26T09:22:21;13.80;53.90
3770;DHT22;1900;48.890;9.190;2023-03-26T09:24:51;13.80;53.90
3770;DHT22;1900;48.890;9.190;2023-03-26T09:30:34;13.80;54.00
3770;DHT22;1900;48.890;9.190;2023-03-26T09:38:43;13.90;54.60
3770;DHT22;1900;48.890;9.190;2023-03-26T09:49:37;14.10;55.20
3770;DHT22;1900;48.890;9.190;2023-03-26T09:55:13;14.20;55.40
3770;DHT22;1900;48.890;9.190;2023-03-26T09:58:06;14.30;55.50
3770;DHT22;1900;48.890;9.190;2023-03-26T10:09:12;14.50;55.70
3770;DHT22;1900;48.890;9.190;2023-03-26T10:12:27;14.60;55.90
3770;DHT22;1900;48.890;9.190;2023-03-26T10:15:01;14.70;56.00
3770;DHT22;1900;48.890;9.190;2023-03-26T10:17:44;14.70;55.90
3770;DHT22;1900;48.890;9.190;2023-03-26T10:22:52;14.90;56.30
3770;DHT22;1900;48.890;9.190;2023-03-26T10:25:34;15.00;56.60
3770;DHT22;1900;48.890;9.190;2023-03-26T10:31:02;15.30;57.30
3770;DHT22;1900;48.890;9.190;2023-03-26T10:53:00;16.80;58.70
3770;DHT22;1900;48.890;9.190;2023-03-26T10:55:30;17.00;59.10
3770;DHT22;1900;48.890;9.190;2023-03-26T10:58:19;17.10;59.10
3770;DHT22;1900;48.890;9.190;2023-03-26T11:01:17;17.30;58.70
3770;DHT22;1900;48.890;9.190;2023-03-26T11:03:45;17.50;58.40
3770;DHT22;1900;48.890;9.190;2023-03-26T11:12:11;17.70;58.10
3770;DHT22;1900;48.890;9.190;2023-03-26T11:15:01;17.80;58.00
3770;DHT22;1900;48.890;9.190;2023-03-26T11:17:55;17.90;57.90
3770;DHT22;1900;48.890;9.190;2023-03-26T11:20:38;18.00;58.10
3770;DHT22;1900;48.890;9.190;2023-03-26T11:23:18;18.20;58.50
3770;DHT22;1900;48.890;9.190;2023-03-26T11:31:38;18.70;58.80
3770;DHT22;1900;48.890;9.190;2023-03-26T11:34:11;18.80;59.10
3770;DHT22;1900;48.890;9.190;2023-03-26T11:36:40;19.00;59.20
3770;DHT22;1900;48.890;9.190;2023-03-26T11:39:14;19.10;59.30
3770;DHT22;1900;48.890;9.190;2023-03-26T11:41:43;19.30;59.20
3770;DHT22;1900;48.890;9.190;2023-03-26T11:44:40;19.40;59.00
3770;DHT22;1900;48.890;9.190;2023-03-26T11:47:09;19.40;58.60
3770;DHT22;1900;48.890;9.190;2023-03-26T11:49:38;19.50;58.60
3770;DHT22;1900;48.890;9.190;2023-03-26T11:52:04;19.50;57.70
3770;DHT22;1900;48.890;9.190;2023-03-26T11:54:32;19.50;57.50
3770;DHT22;1900;48.890;9.190;2023-03-26T11:57:09;19.50;56.70
3770;DHT22;1900;48.890;9.190;2023-03-26T11:59:41;19.40;56.50
3770;DHT22;1900;48.890;9.190;2023-03-26T12:04:50;19.30;57.00
3770;DHT22;1900;48.890;9.190;2023-03-26T12:07:29;19.40;57.40
3770;DHT22;1900;48.890;9.190;2023-03-26T12:10:00;19.40;57.60
3770;DHT22;1900;48.890;9.190;2023-03-26T12:12:30;19.40;57.60
3770;DHT22;1900;48.890;9.190;2023-03-26T12:14:58;19.40;57.00
3770;DHT22;1900;48.890;9.190;2023-03-26T12:17:32;19.30;56.70
3770;DHT22;1900;48.890;9.190;2023-03-26T12:19:59;19.30;56.60
3770;DHT22;1900;48.890;9.190;2023-03-26T12:22:34;19.20;56.50
3770;DHT22;1900;48.890;9.190;2023-03-26T12:25:17;19.10;56.60
3770;DHT22;1900;48.890;9.190;2023-03-26T12:30:51;19.20;57.30
3770;DHT22;1900;48.890;9.190;2023-03-26T12:33:26;19.30;57.70
3770;DHT22;1900;48.890;9.190;2023-03-26T12:35:53;19.40;58.20
3770;DHT22;1900;48.890;9.190;2023-03-26T12:40:48;19.60;58.10
3770;DHT22;1900;48.890;9.190;2023-03-26T12:43:48;19.70;57.90
3770;DHT22;1900;48.890;9.190;2023-03-26T12:46:32;19.80;57.30
3770;DHT22;1900;48.890;9.190;2023-03-26T12:49:05;19.90;57.20
3770;DHT22;1900;48.890;9.190;2023-03-26T12:52:01;20.00;57.70
3770;DHT22;1900;48.890;9.190;2023-03-26T12:54:35;20.10;57.90
3770;DHT22;1900;48.890;9.190;2023-03-26T12:57:20;20.30;57.90
3770;DHT22;1900;48.890;9.190;2023-03-26T13:11:06;21.30;58.90
3770;DHT22;1900;48.890;9.190;2023-03-26T13:19:25;21.90;57.50
3770;DHT22;1900;48.890;9.190;2023-03-26T13:22:16;22.00;57.50
3770;DHT22;1900;48.890;9.190;2023-03-26T13:24:56;22.10;57.00
3770;DHT22;1900;48.890;9.190;2023-03-26T13:35:47;22.00;54.80
3770;DHT22;1900;48.890;9.190;2023-03-26T13:46:41;21.60;53.70
3770;DHT22;1900;48.890;9.190;2023-03-26T13:50:04;21.40;52.30
3770;DHT22;1900;48.890;9.190;2023-03-26T13:52:25;21.20;52.40
3770;DHT22;1900;48.890;9.190;2023-03-26T13:58:31;20.90;53.60
3770;DHT22;1900;48.890;9.190;2023-03-26T14:04:00;20.70;53.50
3770;DHT22;1900;48.890;9.190;2023-03-26T14:06:39;20.60;52.90
3770;DHT22;1900;48.890;9.190;2023-03-26T14:09:16;20.50;53.10
3770;DHT22;1900;48.890;9.190;2023-03-26T14:11:48;20.40;53.40
3770;DHT22;1900;48.890;9.190;2023-03-26T14:14:36;20.30;53.00
3770;DHT22;1900;48.890;9.190;2023-03-26T14:51:25;19.10;53.00
3770;DHT22;1900;48.890;9.190;2023-03-26T14:53:56;19.10;53.00
3770;DHT22;1900;48.890;9.190;2023-03-26T15:24:51;17.70;51.10
3770;DHT22;1900;48.890;9.190;2023-03-26T15:30:33;17.30;51.10
3770;DHT22;1900;48.890;9.190;2023-03-26T15:55:42;16.20;51.50
3770;DHT22;1900;48.890;9.190;2023-03-26T15:58:14;16.10;51.50
3770;DHT22;1900;48.890;9.190;2023-03-26T16:03:23;16.00;51.50
3770;DHT22;1900;48.890;9.190;2023-03-26T16:08:32;15.90;51.60
3770;DHT22;1900;48.890;9.190;2023-03-26T16:11:03;15.80;51.70
3770;DHT22;1900;48.890;9.190;2023-03-26T16:13:34;15.80;51.80
3770;DHT22;1900;48.890;9.190;2023-03-26T16:18:34;15.80;51.90
3770;DHT22;1900;48.890;9.190;2023-03-26T16:31:22;15.70;52.00
3770;DHT22;1900;48.890;9.190;2023-03-26T16:33:55;15.60;52.00
3770;DHT22;1900;48.890;9.190;2023-03-26T16:36:44;15.70;52.10
3770;DHT22;1900;48.890;9.190;2023-03-26T16:39:20;15.70;52.10
3770;DHT22;1900;48.890;9.190;2023-03-26T17:04:57;15.50;52.20
3770;DHT22;1900;48.890;9.190;2023-03-26T17:13:06;15.40;52.00
3770;DHT22;1900;48.890;9.190;2023-03-26T17:29:21;15.30;52.10
3770;DHT22;1900;48.890;9.190;2023-03-26T17:48:18;15.20;52.00
3770;DHT22;1900;48.890;9.190;2023-03-26T17:50:53;15.20;52.00
3770;DHT22;1900;48.890;9.190;2023-03-26T17:53:30;15.20;52.00
3770;DHT22;1900;48.890;9.190;2023-03-26T17:55:58;15.20;52.10
3770;DHT22;1900;48.890;9.190;2023-03-26T17:58:40;15.20;52.00
3770;DHT22;1900;48.890;9.190;2023-03-26T18:01:35;15.20;52.10
3770;DHT22;1900;48.890;9.190;2023-03-26T18:04:05;15.10;52.10
3770;DHT22;1900;48.890;9.190;2023-03-26T18:15:10;15.10;52.10
3770;DHT22;1900;48.890;9.190;2023-03-26T18:17:42;15.10;52.10
3770;DHT22;1900;48.890;9.190;2023-03-26T18:20:37;15.10;52.00
3770;DHT22;1900;48.890;9.190;2023-03-26T18:23:43;15.00;52.00
3770;DHT22;1900;48.890;9.190;2023-03-26T18:26:16;15.00;52.00
3770;DHT22;1900;48.890;9.190;2023-03-26T18:28:52;15.00;52.00
3770;DHT22;1900;48.890;9.190;2023-03-26T18:31:23;15.00;52.00
3770;DHT22;1900;48.890;9.190;2023-03-26T18:33:53;14.90;51.90
3770;DHT22;1900;48.890;9.190;2023-03-26T18:36:19;14.90;51.90
3770;DHT22;1900;48.890;9.190;2023-03-26T18:38:45;14.90;51.90
3770;DHT22;1900;48.890;9.190;2023-03-26T18:41:30;14.90;52.00
3770;DHT22;1900;48.890;9.190;2023-03-26T18:44:02;14.90;52.00
3770;DHT22;1900;48.890;9.190;2023-03-26T18:46:28;14.80;51.90
3770;DHT22;1900;48.890;9.190;2023-03-26T18:48:54;14.80;51.80
3770;DHT22;1900;48.890;9.190;2023-03-26T18:51:21;14.80;51.80
3770;DHT22;1900;48.890;9.190;2023-03-26T18:53:54;14.80;51.90
3770;DHT22;1900;48.890;9.190;2023-03-26T18:58:55;14.70;51.70
3770;DHT22;1900;48.890;9.190;2023-03-26T19:01:24;14.70;51.70
3770;DHT22;1900;48.890;9.190;2023-03-26T19:04:00;14.70;51.70
3770;DHT22;1900;48.890;9.190;2023-03-26T19:06:29;14.70;51.70
3770;DHT22;1900;48.890;9.190;2023-03-26T19:09:02;14.60;51.70
3770;DHT22;1900;48.890;9.190;2023-03-26T19:11:31;14.60;51.60
3770;DHT22;1900;48.890;9.190;2023-03-26T19:14:07;14.60;51.70
3770;DHT22;1900;48.890;9.190;2023-03-26T19:16:38;14.60;51.70
3770;DHT22;1900;48.890;9.190;2023-03-26T19:19:08;14.50;51.60
3770;DHT22;1900;48.890;9.190;2023-03-26T19:21:36;14.50;51.60
3770;DHT22;1900;48.890;9.190;2023-03-26T19:24:03;14.50;51.60
3770;DHT22;1900;48.890;9.190;2023-03-26T19:26:29;14.50;51.60
3770;DHT22;1900;48.890;9.190;2023-03-26T19:28:57;14.40;51.60
3770;DHT22;1900;48.890;9.190;2023-03-26T19:31:31;14.40;51.60
3770;DHT22;1900;48.890;9.190;2023-03-26T19:37:27;14.40;51.50
3770;DHT22;1900;48.890;9.190;2023-03-26T19:40:02;14.30;51.40
3770;DHT22;1900;48.890;9.190;2023-03-26T19:42:37;14.30;51.40
3770;DHT22;1900;48.890;9.190;2023-03-26T19:45:04;14.20;51.30
3770;DHT22;1900;48.890;9.190;2023-03-26T19:47:39;14.20;51.30
3770;DHT22;1900;48.890;9.190;2023-03-26T19:50:24;14.20;51.40
3770;DHT22;1900;48.890;9.190;2023-03-26T19:55:36;14.10;51.30
3770;DHT22;1900;48.890;9.190;2023-03-26T19:58:02;14.10;51.30
3770;DHT22;1900;48.890;9.190;2023-03-26T20:00:27;14.10;51.30
3770;DHT22;1900;48.890;9.190;2023-03-26T20:02:54;14.00;51.20
3770;DHT22;1900;48.890;9.190;2023-03-26T20:05:22;14.00;51.20
3770;DHT22;1900;48.890;9.190;2023-03-26T20:07:50;13.90;51.10
3770;DHT22;1900;48.890;9.190;2023-03-26T20:10:16;13.90;51.10
3770;DHT22;1900;48.890;9.190;2023-03-26T20:12:42;13.90;51.10
3770;DHT22;1900;48.890;9.190;2023-03-26T20:15:24;13.80;51.00
3770;DHT22;1900;48.890;9.190;2023-03-26T20:17:50;13.80;51.10
3770;DHT22;1900;48.890;9.190;2023-03-26T20:20:24;13.80;51.00
3770;DHT22;1900;48.890;9.190;2023-03-26T20:22:51;13.80;51.00
3770;DHT22;1900;48.890;9.190;2023-03-26T20:25:19;13.70;51.00
3770;DHT22;1900;48.890;9.190;2023-03-26T20:27:46;13.70;51.00
3770;DHT22;1900;48.890;9.190;2023-03-26T20:30:12;13.70;51.00
3770;DHT22;1900;48.890;9.190;2023-03-26T20:32:42;13.60;50.90
3770;DHT22;1900;48.890;9.190;2023-03-26T20:35:17;13.60;50.90
3770;DHT22;1900;48.890;9.190;2023-03-26T20:37:45;13.60;51.00
3770;DHT22;1900;48.890;9.190;2023-03-26T20:40:11;13.60;51.10
3770;DHT22;1900;48.890;9.190;2023-03-26T20:42:39;13.50;51.00
3770;DHT22;1900;48.890;9.190;2023-03-26T20:45:19;13.50;51.00
3770;DHT22;1900;48.890;9.190;2023-03-26T20:47:46;13.50;51.00
3770;DHT22;1900;48.890;9.190;2023-03-26T20:50:18;13.50;51.00
3770;DHT22;1900;48.890;9.190;2023-03-26T20:52:46;13.50;51.00
3770;DHT22;1900;48.890;9.190;2023-03-26T20:55:15;13.40;50.90
3770;DHT22;1900;48.890;9.190;2023-03-26T20:57:42;13.40;50.90
3770;DHT22;1900;48.890;9.190;2023-03-26T21:00:12;13.40;51.00
3770;DHT22;1900;48.890;9.190;2023-03-26T21:02:51;13.40;51.00
3770;DHT22;1900;48.890;9.190;2023-03-26T21:05:18;13.40;51.00
3770;DHT22;1900;48.890;9.190;2023-03-26T21:07:53;13.40;51.00
3770;DHT22;1900;48.890;9.190;2023-03-26T21:10:19;13.40;51.10
3770;DHT22;1900;48.890;9.190;2023-03-26T21:15:28;13.40;51.10
3770;DHT22;1900;48.890;9.190;2023-03-26T21:17:56;13.40;51.10
3770;DHT22;1900;48.890;9.190;2023-03-26T21:20:23;13.30;51.10
3770;DHT22;1900;48.890;9.190;2023-03-26T21:28:39;13.30;51.10
3770;DHT22;1900;48.890;9.190;2023-03-26T21:31:21;13.30;51.10
3770;DHT22;1900;48.890;9.190;2023-03-26T21:33:48;13.30;51.20
3770;DHT22;1900;48.890;9.190;2023-03-26T21:36:15;13.30;51.20
3770;DHT22;1900;48.890;9.190;2023-03-26T21:38:42;13.30;51.20
3770;DHT22;1900;48.890;9.190;2023-03-26T21:43:49;13.30;51.30
3770;DHT22;1900;48.890;9.190;2023-03-26T21:46:15;13.30;51.20
3770;DHT22;1900;48.890;9.190;2023-03-26T21:48:42;13.30;51.20
3770;DHT22;1900;48.890;9.190;2023-03-26T21:51:10;13.20;51.20
3770;DHT22;1900;48.890;9.190;2023-03-26T21:53:40;13.20;51.20
3770;DHT22;1900;48.890;9.190;2023-03-26T21:56:17;13.20;51.20
3770;DHT22;1900;48.890;9.190;2023-03-26T21:59:22;13.20;51.30
3770;DHT22;1900;48.890;9.190;2023-03-26T22:02:38;13.20;51.40
3770;DHT22;1900;48.890;9.190;2023-03-26T22:05:18;13.20;51.40
3770;DHT22;1900;48.890;9.190;2023-03-26T22:08:02;13.20;52.10
3770;DHT22;1900;48.890;9.190;2023-03-26T22:10:30;13.20;51.50
3770;DHT22;1900;48.890;9.190;2023-03-26T22:12:56;13.20;51.50
3770;DHT22;1900;48.890;9.190;2023-03-26T22:15:22;13.20;51.50
3770;DHT22;1900;48.890;9.190;2023-03-26T22:17:51;13.10;51.40
3770;DHT22;1900;48.890;9.190;2023-03-26T22:20:21;13.10;51.40
3770;DHT22;1900;48.890;9.190;2023-03-26T22:22:50;13.10;51.40
3770;DHT22;1900;48.890;9.190;2023-03-26T22:25:18;13.10;51.40
3770;DHT22;1900;48.890;9.190;2023-03-26T22:27:44;13.10;51.50
3770;DHT22;1900;48.890;9.190;2023-03-26T22:30:11;13.10;51.50
3770;DHT22;1900;48.890;9.190;2023-03-26T22:32:37;13.10;51.60
3770;DHT22;1900;48.890;9.190;2023-03-26T22:35:04;13.10;51.60
3770;DHT22;1900;48.890;9.190;2023-03-26T22:37:29;13.10;51.70
3770;DHT22;1900;48.890;9.190;2023-03-26T22:39:56;13.10;51.70
3770;DHT22;1900;48.890;9.190;2023-03-26T22:42:22;13.10;51.70
3770;DHT22;1900;48.890;9.190;2023-03-26T22:44:47;13.10;51.70
3770;DHT22;1900;48.890;9.190;2023-03-26T22:47:13;13.10;52.40
3770;DHT22;1900;48.890;9.190;2023-03-26T22:49:42;13.10;51.80
3770;DHT22;1900;48.890;9.190;2023-03-26T22:52:08;13.20;51.90
3770;DHT22;1900;48.890;9.190;2023-03-26T22:54:33;13.20;51.90
3770;DHT22;1900;48.890;9.190;2023-03-26T22:57:01;13.20;52.00
3770;DHT22;1900;48.890;9.190;2023-03-26T22:59:27;13.20;52.00
3770;DHT22;1900;48.890;9.190;2023-03-26T23:01:53;13.20;52.10
3770;DHT22;1900;48.890;9.190;2023-03-26T23:04:19;13.20;52.00
3770;DHT22;1900;48.890;9.190;2023-03-26T23:06:52;13.20;52.00